createdAt,value
2016-08-03T00:00:48.501Z,996.71
2016-08-03T00:01:48.525Z,996.72
2016-08-03T00:02:48.541Z,996.64
2016-08-03T00:03:48.562Z,996.66
2016-08-03T00:04:48.580Z,996.63
2016-08-03T00:05:48.601Z,996.69
2016-08-03T00:06:48.619Z,996.73
2016-08-03T00:07:48.639Z,996.71
2016-08-03T00:08:48.655Z,996.75
2016-08-03T00:09:48.678Z,996.75
2016-08-03T00:10:48.699Z,996.73
2016-08-03T00:11:48.717Z,996.71
2016-08-03T00:12:48.734Z,996.76
2016-08-03T00:13:48.758Z,996.68
2016-08-03T00:14:48.774Z,996.69
2016-08-03T00:15:48.794Z,996.66
2016-08-03T00:16:48.816Z,996.68
2016-08-03T00:17:48.835Z,996.71
2016-08-03T00:18:48.851Z,996.68
2016-08-03T00:20:48.893Z,996.63
2016-08-03T00:21:48.926Z,996.66
2016-08-03T00:22:48.931Z,996.65
2016-08-03T00:23:48.952Z,996.66
2016-08-03T00:24:48.968Z,996.63
2016-08-03T00:25:48.989Z,996.66
2016-08-03T00:26:49.006Z,996.66
2016-08-03T00:27:49.028Z,996.63
2016-08-03T00:28:49.044Z,996.6
2016-08-03T00:29:49.071Z,996.59
2016-08-03T00:30:49.082Z,996.58
2016-08-03T00:31:49.103Z,996.61
2016-08-03T00:32:49.123Z,996.62
2016-08-03T00:33:49.144Z,996.63
2016-08-03T00:34:49.162Z,996.55
2016-08-03T00:35:49.187Z,996.53
2016-08-03T00:36:49.202Z,996.57
2016-08-03T00:37:49.228Z,996.5
2016-08-03T00:38:49.245Z,996.58
2016-08-03T00:39:49.261Z,996.53
2016-08-03T00:40:49.282Z,996.51
2016-08-03T00:41:49.300Z,996.51
2016-08-03T00:42:49.317Z,996.52
2016-08-03T00:43:49.340Z,996.53
2016-08-03T00:44:49.360Z,996.48
2016-08-03T00:45:49.384Z,996.47
2016-08-03T00:46:49.408Z,996.5
2016-08-03T00:47:49.419Z,996.46
2016-08-03T00:48:49.433Z,996.46
2016-08-03T00:49:49.468Z,996.49
2016-08-03T00:50:49.474Z,996.47
2016-08-03T00:51:49.503Z,996.4
2016-08-03T00:52:49.510Z,996.4
2016-08-03T00:53:49.532Z,996.4
2016-08-03T00:54:49.556Z,996.38
2016-08-03T00:55:49.574Z,996.4
2016-08-03T00:56:49.593Z,996.39
2016-08-03T00:57:49.613Z,996.34
2016-08-03T00:58:49.630Z,996.36
2016-08-03T00:59:49.652Z,996.36
2016-08-03T01:00:49.672Z,996.38
2016-08-03T01:01:49.690Z,996.41
2016-08-03T01:02:49.709Z,996.4
2016-08-03T01:03:49.736Z,996.36
2016-08-03T01:04:49.745Z,996.37
2016-08-03T01:05:49.767Z,996.37
2016-08-03T01:06:49.787Z,996.35
2016-08-03T01:07:49.815Z,996.34
2016-08-03T01:08:49.824Z,996.33
2016-08-03T01:09:49.846Z,996.32
2016-08-03T01:10:49.863Z,996.32
2016-08-03T01:11:49.885Z,996.34
2016-08-03T01:12:49.906Z,996.32
2016-08-03T01:14:49.942Z,996.36
2016-08-03T01:15:49.967Z,996.32
2016-08-03T01:16:49.981Z,996.29
2016-08-03T01:17:49.998Z,996.31
2016-08-03T01:18:50.018Z,996.23
2016-08-03T01:19:50.039Z,996.26
2016-08-03T01:20:50.059Z,996.2
2016-08-03T01:21:50.077Z,996.2
2016-08-03T01:22:50.100Z,996.19
2016-08-03T01:23:50.118Z,996.18
2016-08-03T01:24:50.135Z,996.16
2016-08-03T01:25:50.158Z,996.19
2016-08-03T01:26:50.176Z,996.16
2016-08-03T01:27:50.202Z,996.15
2016-08-03T01:29:50.233Z,996.17
2016-08-03T01:30:50.252Z,996.16
2016-08-03T01:31:50.284Z,996.11
2016-08-03T01:32:50.293Z,996.15
2016-08-03T01:33:50.314Z,996.12
2016-08-03T01:34:50.331Z,996.11
2016-08-03T01:35:50.349Z,996.13
2016-08-03T01:36:50.369Z,996.15
2016-08-03T01:37:50.391Z,996.12
2016-08-03T01:38:50.412Z,996.12
2016-08-03T01:39:50.439Z,996.11
2016-08-03T01:40:50.452Z,996.02
2016-08-03T01:41:50.465Z,996.09
2016-08-03T01:42:50.491Z,996.05
2016-08-03T01:43:50.506Z,996.05
2016-08-03T01:44:50.528Z,996.06
2016-08-03T01:45:50.546Z,996.03
2016-08-03T01:46:50.563Z,996.04
2016-08-03T01:47:50.585Z,996.06
2016-08-03T01:48:50.610Z,996.04
2016-08-03T01:49:50.629Z,996.05
2016-08-03T01:50:50.645Z,996.05
2016-08-03T01:51:50.662Z,996.07
2016-08-03T01:52:50.679Z,996.07
2016-08-03T01:53:50.705Z,996
2016-08-03T01:54:50.722Z,996
2016-08-03T01:55:50.738Z,996.03
2016-08-03T01:56:50.758Z,996.03
2016-08-03T01:57:50.779Z,996.01
2016-08-03T01:58:50.797Z,996
2016-08-03T01:59:50.818Z,996.03
2016-08-03T02:00:50.836Z,996.02
2016-08-03T02:01:50.856Z,996.02
2016-08-03T02:02:50.877Z,995.99
2016-08-03T02:03:50.895Z,996.02
2016-08-03T02:04:50.914Z,995.98
2016-08-03T02:05:50.935Z,996.01
2016-08-03T02:06:50.953Z,996.01
2016-08-03T02:07:50.974Z,995.97
2016-08-03T02:08:50.993Z,995.96
2016-08-03T02:09:51.013Z,995.96
2016-08-03T02:10:51.035Z,995.91
2016-08-03T02:11:51.060Z,995.94
2016-08-03T02:12:51.071Z,995.88
2016-08-03T02:13:51.092Z,995.84
2016-08-03T02:14:51.107Z,995.9
2016-08-03T02:15:51.129Z,995.89
2016-08-03T02:16:51.151Z,995.85
2016-08-03T02:17:51.169Z,995.84
2016-08-03T02:18:51.191Z,995.83
2016-08-03T02:19:51.222Z,995.81
2016-08-03T02:20:51.227Z,995.82
2016-08-03T02:21:51.249Z,995.8
2016-08-03T02:22:51.266Z,995.76
2016-08-03T02:23:51.292Z,995.75
2016-08-03T02:24:51.307Z,995.7
2016-08-03T02:25:51.330Z,995.75
2016-08-03T02:26:51.345Z,995.71
2016-08-03T02:27:51.371Z,995.75
2016-08-03T02:28:51.380Z,995.75
2016-08-03T02:29:51.407Z,995.72
2016-08-03T02:30:51.422Z,995.72
2016-08-03T02:31:51.440Z,995.7
2016-08-03T02:32:51.461Z,995.69
2016-08-03T02:33:51.480Z,995.63
2016-08-03T02:34:51.499Z,995.63
2016-08-03T02:35:51.520Z,995.64
2016-08-03T02:36:51.542Z,995.61
2016-08-03T02:37:51.565Z,995.63
2016-08-03T02:38:51.579Z,995.63
2016-08-03T02:39:51.596Z,995.59
2016-08-03T02:40:51.615Z,995.63
2016-08-03T02:41:51.637Z,995.59
2016-08-03T02:42:51.657Z,995.65
2016-08-03T02:43:51.677Z,995.64
2016-08-03T02:44:51.695Z,995.67
2016-08-03T02:45:51.715Z,995.65
2016-08-03T02:46:51.733Z,995.61
2016-08-03T02:47:51.752Z,995.62
2016-08-03T02:48:51.773Z,995.66
2016-08-03T02:49:51.799Z,995.61
2016-08-03T02:50:51.811Z,995.61
2016-08-03T02:51:51.830Z,995.55
2016-08-03T02:52:51.854Z,995.64
2016-08-03T02:53:51.870Z,995.58
2016-08-03T02:54:51.891Z,995.63
2016-08-03T02:55:51.911Z,995.58
2016-08-03T02:56:51.928Z,995.64
2016-08-03T02:57:51.950Z,995.6
2016-08-03T02:58:51.975Z,995.61
2016-08-03T02:59:51.988Z,995.56
2016-08-03T03:00:52.008Z,995.59
2016-08-03T03:01:52.031Z,995.59
2016-08-03T03:02:52.048Z,995.56
2016-08-03T03:03:52.066Z,995.55
2016-08-03T03:04:52.090Z,995.54
2016-08-03T03:05:52.110Z,995.58
2016-08-03T03:06:52.125Z,995.56
2016-08-03T03:07:52.148Z,995.54
2016-08-03T03:08:52.164Z,995.57
2016-08-03T03:09:52.187Z,995.55
2016-08-03T03:10:52.205Z,995.55
2016-08-03T03:11:52.222Z,995.55
2016-08-03T03:12:52.244Z,995.53
2016-08-03T03:13:52.265Z,995.55
2016-08-03T03:14:52.283Z,995.57
2016-08-03T03:15:52.308Z,995.53
2016-08-03T03:16:52.324Z,995.53
2016-08-03T03:17:52.339Z,995.55
2016-08-03T03:18:52.362Z,995.55
2016-08-03T03:19:52.383Z,995.53
2016-08-03T03:20:52.411Z,995.53
2016-08-03T03:21:52.419Z,995.5
2016-08-03T03:22:52.440Z,995.52
2016-08-03T03:23:52.458Z,995.47
2016-08-03T03:24:52.475Z,995.54
2016-08-03T03:25:52.501Z,995.49
2016-08-03T03:26:52.518Z,995.53
2016-08-03T03:27:52.541Z,995.52
2016-08-03T03:28:52.557Z,995.53
2016-08-03T03:29:52.576Z,995.51
2016-08-03T03:30:52.594Z,995.49
2016-08-03T03:31:52.617Z,995.48
2016-08-03T03:32:52.639Z,995.48
2016-08-03T03:33:52.658Z,995.48
2016-08-03T03:34:52.673Z,995.54
2016-08-03T03:35:52.694Z,995.48
2016-08-03T03:36:52.713Z,995.51
2016-08-03T03:37:52.735Z,995.48
2016-08-03T03:38:52.753Z,995.51
2016-08-03T03:39:52.775Z,995.52
2016-08-03T03:40:52.792Z,995.47
2016-08-03T03:41:52.815Z,995.53
2016-08-03T03:42:52.833Z,995.46
2016-08-03T03:43:52.863Z,995.45
2016-08-03T03:44:52.871Z,995.44
2016-08-03T03:45:52.892Z,995.42
2016-08-03T03:46:52.911Z,995.4
2016-08-03T03:47:52.941Z,995.4
2016-08-03T03:48:52.951Z,995.37
2016-08-03T03:49:52.981Z,995.38
2016-08-03T03:50:52.989Z,995.39
2016-08-03T03:51:53.012Z,995.35
2016-08-03T03:52:53.033Z,995.35
2016-08-03T03:53:53.053Z,995.34
2016-08-03T03:54:53.068Z,995.3
2016-08-03T03:55:53.094Z,995.32
2016-08-03T03:56:53.111Z,995.31
2016-08-03T03:57:53.135Z,995.28
2016-08-03T03:58:53.145Z,995.25
2016-08-03T03:59:53.167Z,995.31
2016-08-03T04:00:53.187Z,995.27
2016-08-03T04:01:53.207Z,995.28
2016-08-03T04:02:53.227Z,995.28
2016-08-03T04:03:53.251Z,995.3
2016-08-03T04:04:53.268Z,995.33
2016-08-03T04:05:53.285Z,995.35
2016-08-03T04:06:53.303Z,995.33
2016-08-03T04:07:53.327Z,995.31
2016-08-03T04:08:53.349Z,995.39
2016-08-03T04:09:53.361Z,995.45
2016-08-03T04:10:53.382Z,995.38
2016-08-03T04:11:53.405Z,995.37
2016-08-03T04:12:53.423Z,995.39
2016-08-03T04:13:53.441Z,995.34
2016-08-03T04:14:53.463Z,995.38
2016-08-03T04:15:53.491Z,995.41
2016-08-03T04:16:53.501Z,995.39
2016-08-03T04:17:53.523Z,995.41
2016-08-03T04:18:53.539Z,995.37
2016-08-03T04:19:53.561Z,995.31
2016-08-03T04:20:53.579Z,995.25
2016-08-03T04:21:53.599Z,995.19
2016-08-03T04:22:53.619Z,995.23
2016-08-03T04:23:53.637Z,995.19
2016-08-03T04:24:53.660Z,995.25
2016-08-03T04:25:53.688Z,995.2
2016-08-03T04:26:53.700Z,995.21
2016-08-03T04:27:53.722Z,995.14
2016-08-03T04:28:53.740Z,995.14
2016-08-03T04:29:53.767Z,995.18
2016-08-03T04:30:53.775Z,995.17
2016-08-03T04:31:53.798Z,995.19
2016-08-03T04:32:53.816Z,995.15
2016-08-03T04:33:53.839Z,995.15
2016-08-03T04:34:53.857Z,995.14
2016-08-03T04:35:53.877Z,995.14
2016-08-03T04:36:53.896Z,995.18
2016-08-03T04:37:53.917Z,995.13
2016-08-03T04:38:53.934Z,995.12
2016-08-03T04:39:53.952Z,995.15
2016-08-03T04:40:53.976Z,995.15
2016-08-03T04:41:53.997Z,995.16
2016-08-03T04:42:54.014Z,995.12
2016-08-03T04:43:54.038Z,995.13
2016-08-03T04:44:54.054Z,995.13
2016-08-03T04:45:54.075Z,995.12
2016-08-03T04:46:54.094Z,995.12
2016-08-03T04:47:54.111Z,995.13
2016-08-03T04:48:54.133Z,995.15
2016-08-03T04:49:54.154Z,995.13
2016-08-03T04:50:54.169Z,995.1
2016-08-03T04:51:54.208Z,995.14
2016-08-03T04:52:54.216Z,995.14
2016-08-03T04:53:54.230Z,995.18
2016-08-03T04:54:54.250Z,995.16
2016-08-03T04:55:54.276Z,995.13
2016-08-03T04:56:54.291Z,995.18
2016-08-03T04:57:54.311Z,995.17
2016-08-03T04:58:54.329Z,995.18
2016-08-03T05:00:54.370Z,995.22
2016-08-03T05:01:54.395Z,995.27
2016-08-03T05:02:54.410Z,995.26
2016-08-03T05:03:54.430Z,995.33
2016-08-03T05:04:54.449Z,995.26
2016-08-03T05:05:54.482Z,995.25
2016-08-03T05:06:54.489Z,995.23
2016-08-03T05:07:54.509Z,995.24
2016-08-03T05:08:54.528Z,995.19
2016-08-03T05:09:54.549Z,995.24
2016-08-03T05:10:54.567Z,995.24
2016-08-03T05:11:54.589Z,995.21
2016-08-03T05:12:54.607Z,995.27
2016-08-03T05:13:54.626Z,995.25
2016-08-03T05:15:54.665Z,995.26
2016-08-03T05:16:54.685Z,995.27
2016-08-03T05:17:54.709Z,995.25
2016-08-03T05:18:54.726Z,995.25
2016-08-03T05:19:54.746Z,995.28
2016-08-03T05:20:54.764Z,995.27
2016-08-03T05:21:54.799Z,995.28
2016-08-03T05:22:54.806Z,995.25
2016-08-03T05:23:54.825Z,995.22
2016-08-03T05:24:54.843Z,995.23
2016-08-03T05:25:54.865Z,995.29
2016-08-03T05:26:54.884Z,995.25
2016-08-03T05:27:54.907Z,995.25
2016-08-03T05:28:54.924Z,995.24
2016-08-03T05:30:54.961Z,995.25
2016-08-03T05:31:54.986Z,995.25
2016-08-03T05:32:55.017Z,995.27
2016-08-03T05:33:55.022Z,995.23
2016-08-03T05:34:55.040Z,995.2
2016-08-03T05:35:55.063Z,995.23
2016-08-03T05:36:55.078Z,995.23
2016-08-03T05:37:55.103Z,995.16
2016-08-03T05:38:55.115Z,995.26
2016-08-03T05:39:55.138Z,995.23
2016-08-03T05:40:55.156Z,995.24
2016-08-03T05:41:55.177Z,995.25
2016-08-03T05:42:55.197Z,995.21
2016-08-03T05:43:55.215Z,995.24
2016-08-03T05:44:55.236Z,995.24
2016-08-03T05:45:55.255Z,995.24
2016-08-03T05:46:55.277Z,995.27
2016-08-03T05:47:55.291Z,995.27
2016-08-03T05:48:55.316Z,995.24
2016-08-03T05:49:55.337Z,995.29
2016-08-03T05:50:55.352Z,995.26
2016-08-03T05:51:55.383Z,995.25
2016-08-03T05:52:55.395Z,995.25
2016-08-03T05:53:55.418Z,995.25
2016-08-03T05:54:55.432Z,995.21
2016-08-03T05:55:55.454Z,995.24
2016-08-03T05:56:55.471Z,995.22
2016-08-03T05:57:55.491Z,995.23
2016-08-03T05:58:55.511Z,995.28
2016-08-03T05:59:55.543Z,995.25
2016-08-03T06:00:55.549Z,995.26
2016-08-03T06:01:55.570Z,995.27
2016-08-03T06:02:55.591Z,995.24
2016-08-03T06:03:55.611Z,995.22
2016-08-03T06:04:55.629Z,995.25
2016-08-03T06:05:55.658Z,995.24
2016-08-03T06:06:55.670Z,995.26
2016-08-03T06:07:55.695Z,995.29
2016-08-03T06:08:55.713Z,995.27
2016-08-03T06:09:55.734Z,995.25
2016-08-03T06:10:55.747Z,995.26
2016-08-03T06:11:55.768Z,995.25
2016-08-03T06:12:55.791Z,995.23
2016-08-03T06:13:55.809Z,995.22
2016-08-03T06:14:55.826Z,995.2
2016-08-03T06:15:55.855Z,995.23
2016-08-03T06:16:55.869Z,995.24
2016-08-03T06:17:55.887Z,995.18
2016-08-03T06:18:55.908Z,995.18
2016-08-03T06:19:55.927Z,995.16
2016-08-03T06:20:55.948Z,995.14
2016-08-03T06:21:55.969Z,995.18
2016-08-03T06:22:55.992Z,995.17
2016-08-03T06:23:56.009Z,995.17
2016-08-03T06:24:56.029Z,995.16
2016-08-03T06:25:56.050Z,995.16
2016-08-03T06:26:56.070Z,995.12
2016-08-03T06:27:56.093Z,995.15
2016-08-03T06:28:56.107Z,995.14
2016-08-03T06:29:56.136Z,995.11
2016-08-03T06:30:56.148Z,995.08
2016-08-03T06:31:56.170Z,995.07
2016-08-03T06:32:56.193Z,995.11
2016-08-03T06:33:56.210Z,995.1
2016-08-03T06:34:56.231Z,995.04
2016-08-03T06:35:56.250Z,995.06
2016-08-03T06:36:56.272Z,995.1
2016-08-03T06:37:56.296Z,995.09
2016-08-03T06:38:56.314Z,995.07
2016-08-03T06:39:56.333Z,995.06
2016-08-03T06:40:56.357Z,995.04
2016-08-03T06:41:56.373Z,995.04
2016-08-03T06:42:56.392Z,995.1
2016-08-03T06:43:56.418Z,995.08
2016-08-03T06:44:56.434Z,995.07
2016-08-03T06:45:56.455Z,995.07
2016-08-03T06:46:56.475Z,995.05
2016-08-03T06:47:56.495Z,995.08
2016-08-03T06:48:56.513Z,995.11
2016-08-03T06:49:56.535Z,995.09
2016-08-03T06:51:56.574Z,995.16
2016-08-03T06:52:56.595Z,995.11
2016-08-03T06:53:56.616Z,995.1
2016-08-03T06:54:56.637Z,995.15
2016-08-03T06:55:56.657Z,995.11
2016-08-03T06:56:56.680Z,995.04
2016-08-03T06:57:56.695Z,995.13
2016-08-03T06:58:56.718Z,995.16
2016-08-03T06:59:56.735Z,995.18
2016-08-03T07:00:56.756Z,995.15
2016-08-03T07:01:56.776Z,995.1
2016-08-03T07:02:56.797Z,995.05
2016-08-03T07:03:56.822Z,995.1
2016-08-03T07:04:56.840Z,995.1
2016-08-03T07:05:56.855Z,995.08
2016-08-03T07:06:56.876Z,995.11
2016-08-03T07:07:56.899Z,995.12
2016-08-03T07:08:56.921Z,995.13
2016-08-03T07:09:56.940Z,995.15
2016-08-03T07:10:56.963Z,995.11
2016-08-03T07:11:56.985Z,995.09
2016-08-03T07:12:57.001Z,995.17
2016-08-03T07:13:57.020Z,995.11
2016-08-03T07:14:57.040Z,995.12
2016-08-03T07:15:57.071Z,995.09
2016-08-03T07:16:57.085Z,995.11
2016-08-03T07:17:57.106Z,995.11
2016-08-03T07:18:57.124Z,995.13
2016-08-03T07:19:57.156Z,995.11
2016-08-03T07:20:57.168Z,995.14
2016-08-03T07:21:57.189Z,995.18
2016-08-03T07:22:57.207Z,995.17
2016-08-03T07:23:57.236Z,995.11
2016-08-03T07:24:57.245Z,995.22
2016-08-03T07:25:57.274Z,995.17
2016-08-03T07:26:57.290Z,995.06
2016-08-03T07:27:57.309Z,995.12
2016-08-03T07:28:57.329Z,995.12
2016-08-03T07:29:57.349Z,995.14
2016-08-03T07:30:57.369Z,995.18
2016-08-03T07:31:57.390Z,995.1
2016-08-03T07:32:57.409Z,995.06
2016-08-03T07:33:57.435Z,995.04
2016-08-03T07:34:57.450Z,995.08
2016-08-03T07:35:57.474Z,995.08
2016-08-03T07:36:57.492Z,995.07
2016-08-03T07:37:57.517Z,995.11
2016-08-03T07:38:57.536Z,995.13
2016-08-03T07:39:57.558Z,995.07
2016-08-03T07:40:57.578Z,995.15
2016-08-03T07:41:57.599Z,995.11
2016-08-03T07:42:57.619Z,995.14
2016-08-03T07:43:57.637Z,995.14
2016-08-03T07:44:57.661Z,995.1
2016-08-03T07:45:57.683Z,995.14
2016-08-03T07:46:57.698Z,995.15
2016-08-03T07:47:57.720Z,995.12
2016-08-03T07:48:57.738Z,995.07
2016-08-03T07:49:57.762Z,995.01
2016-08-03T07:50:57.780Z,995.02
2016-08-03T07:51:57.803Z,995.07
2016-08-03T07:52:57.822Z,995.1
2016-08-03T07:53:57.842Z,995.14
2016-08-03T07:54:57.866Z,995.1
2016-08-03T07:55:57.898Z,995.11
2016-08-03T07:56:57.909Z,995.07
2016-08-03T07:57:57.932Z,995.09
2016-08-03T07:58:57.946Z,995.08
2016-08-03T07:59:57.966Z,995.07
2016-08-03T08:00:57.989Z,995.08
2016-08-03T08:01:58.015Z,995.1
2016-08-03T08:02:58.030Z,995.08
2016-08-03T08:03:58.053Z,995.07
2016-08-03T08:04:58.075Z,995.12
2016-08-03T08:05:58.098Z,995.1
2016-08-03T08:06:58.115Z,995.11
2016-08-03T08:07:58.133Z,995.09
2016-08-03T08:08:58.158Z,995.12
2016-08-03T08:09:58.179Z,995.1
2016-08-03T08:10:58.196Z,995.14
2016-08-03T08:11:58.219Z,995.09
2016-08-03T08:12:58.238Z,995.11
2016-08-03T08:13:58.261Z,995.12
2016-08-03T08:14:58.280Z,995.09
2016-08-03T08:15:58.299Z,995.1
2016-08-03T08:16:58.318Z,995.15
2016-08-03T08:17:58.344Z,995.14
2016-08-03T08:18:58.359Z,995.13
2016-08-03T08:19:58.391Z,995.08
2016-08-03T08:20:58.401Z,995.08
2016-08-03T08:21:58.431Z,995.09
2016-08-03T08:22:58.443Z,995.11
2016-08-03T08:23:58.472Z,995.14
2016-08-03T08:24:58.485Z,995.07
2016-08-03T08:25:58.509Z,995.1
2016-08-03T08:26:58.530Z,995.08
2016-08-03T08:27:58.551Z,995.1
2016-08-03T08:28:58.571Z,995.09
2016-08-03T08:29:58.592Z,995.07
2016-08-03T08:30:58.614Z,995.12
2016-08-03T08:31:58.635Z,995.12
2016-08-03T08:32:58.654Z,995.19
2016-08-03T08:33:58.675Z,995.15
2016-08-03T08:34:58.694Z,995.13
2016-08-03T08:35:58.719Z,995.12
2016-08-03T08:36:58.739Z,995.16
2016-08-03T08:37:58.755Z,995.19
2016-08-03T08:38:58.776Z,995.19
2016-08-03T08:39:58.801Z,995.24
2016-08-03T08:40:58.817Z,995.28
2016-08-03T08:41:58.843Z,995.22
2016-08-03T08:42:58.859Z,995.25
2016-08-03T08:43:58.883Z,995.27
2016-08-03T08:44:58.905Z,995.25
2016-08-03T08:45:58.923Z,995.29
2016-08-03T08:46:58.943Z,995.28
2016-08-03T08:47:58.966Z,995.26
2016-08-03T08:48:58.986Z,995.24
2016-08-03T08:49:59.010Z,995.26
2016-08-03T08:50:59.035Z,995.2
2016-08-03T08:51:59.073Z,995.17
2016-08-03T08:52:59.076Z,995.2
2016-08-03T08:53:59.097Z,995.26
2016-08-03T08:54:59.115Z,995.2
2016-08-03T08:55:59.139Z,995.21
2016-08-03T08:56:59.159Z,995.27
2016-08-03T08:57:59.185Z,995.38
2016-08-03T08:58:59.201Z,995.28
2016-08-03T08:59:59.225Z,995.22
2016-08-03T09:01:59.267Z,995.15
2016-08-03T09:02:59.285Z,995.18
2016-08-03T09:03:59.307Z,995.21
2016-08-03T09:04:59.330Z,995.18
2016-08-03T09:05:59.360Z,995.14
2016-08-03T09:06:59.373Z,995.14
2016-08-03T09:07:59.395Z,995.2
2016-08-03T09:08:59.416Z,995.31
2016-08-03T09:09:59.440Z,995.21
2016-08-03T09:10:59.459Z,995.32
2016-08-03T09:11:59.481Z,995.27
2016-08-03T09:12:59.503Z,995.22
2016-08-03T09:13:59.527Z,995.26
2016-08-03T09:14:59.548Z,995.37
2016-08-03T09:16:59.593Z,995.36
2016-08-03T09:17:59.613Z,995.3
2016-08-03T09:18:59.637Z,995.42
2016-08-03T09:19:59.655Z,995.47
2016-08-03T09:20:59.680Z,995.49
2016-08-03T09:21:59.700Z,995.39
2016-08-03T09:22:59.722Z,995.38
2016-08-03T09:23:59.745Z,995.3
2016-08-03T09:24:59.767Z,995.27
2016-08-03T09:25:59.790Z,995.33
2016-08-03T09:26:59.811Z,995.4
2016-08-03T09:27:59.832Z,995.25
2016-08-03T09:28:59.858Z,995.17
2016-08-03T09:29:59.878Z,995.18
2016-08-03T09:31:59.921Z,995.25
2016-08-03T09:32:59.946Z,995.21
2016-08-03T09:33:59.966Z,995.28
2016-08-03T09:34:59.991Z,995.28
2016-08-03T09:36:00.009Z,995.35
2016-08-03T09:37:00.034Z,995.36
2016-08-03T09:38:00.059Z,995.45
2016-08-03T09:39:00.081Z,995.36
2016-08-03T09:40:00.097Z,995.26
2016-08-03T09:41:00.122Z,995.35
2016-08-03T09:42:00.146Z,995.34
2016-08-03T09:43:00.166Z,995.34
2016-08-03T09:44:00.188Z,995.27
2016-08-03T09:45:00.207Z,995.31
2016-08-03T09:47:00.251Z,995.17
2016-08-03T09:48:00.275Z,995.1
2016-08-03T09:49:00.295Z,995.05
2016-08-03T09:50:00.319Z,995.15
2016-08-03T09:51:00.339Z,995.11
2016-08-03T09:52:00.360Z,995.13
2016-08-03T09:53:00.388Z,995.14
2016-08-03T09:54:00.416Z,995.08
2016-08-03T09:55:00.429Z,995.06
2016-08-03T09:56:00.448Z,995.09
2016-08-03T09:57:00.468Z,995.11
2016-08-03T09:58:00.495Z,995.14
2016-08-03T09:59:00.517Z,995.1
2016-08-03T10:00:00.535Z,995.1
2016-08-03T10:02:00.589Z,995.05
2016-08-03T10:03:00.597Z,995.11
2016-08-03T10:04:00.633Z,995.18
2016-08-03T10:05:00.646Z,995.08
2016-08-03T10:06:00.664Z,995.15
2016-08-03T10:07:00.684Z,995.18
2016-08-03T10:08:00.717Z,995.1
2016-08-03T10:09:00.762Z,995.16
2016-08-03T10:10:00.796Z,995.17
2016-08-03T10:11:00.773Z,995.11
2016-08-03T10:12:00.851Z,995.11
2016-08-03T10:13:00.817Z,995.18
2016-08-03T10:14:00.835Z,995.18
2016-08-03T10:15:00.858Z,995.2
2016-08-03T10:16:00.883Z,995.25
2016-08-03T10:17:00.902Z,995.19
2016-08-03T10:18:00.923Z,995.24
2016-08-03T10:19:00.943Z,995.18
2016-08-03T10:20:00.968Z,995.16
2016-08-03T10:21:00.992Z,995.12
2016-08-03T10:22:01.009Z,995.15
2016-08-03T10:23:01.030Z,995.13
2016-08-03T10:24:01.054Z,995.06
2016-08-03T10:25:01.071Z,995.08
2016-08-03T10:26:01.096Z,995.07
2016-08-03T10:27:01.116Z,995.13
2016-08-03T10:28:01.140Z,995.08
2016-08-03T10:29:01.160Z,995.06
2016-08-03T10:30:01.184Z,994.99
2016-08-03T10:31:01.205Z,995.03
2016-08-03T10:32:01.228Z,995.04
2016-08-03T10:33:01.247Z,995.03
2016-08-03T10:34:01.271Z,994.98
2016-08-03T10:35:01.292Z,995
2016-08-03T10:36:01.315Z,995.02
2016-08-03T10:37:01.334Z,995.05
2016-08-03T10:38:01.359Z,995.07
2016-08-03T10:39:01.379Z,995.1
2016-08-03T10:40:01.397Z,995.15
2016-08-03T10:41:01.424Z,995.07
2016-08-03T10:42:01.442Z,995.06
2016-08-03T10:43:01.464Z,995.04
2016-08-03T10:44:01.485Z,994.96
2016-08-03T10:45:01.511Z,994.95
2016-08-03T10:46:01.532Z,994.94
2016-08-03T10:47:01.551Z,994.89
2016-08-03T10:48:01.572Z,994.93
2016-08-03T10:49:01.596Z,994.89
2016-08-03T10:50:01.621Z,994.87
2016-08-03T10:51:01.642Z,994.83
2016-08-03T10:52:01.659Z,994.82
2016-08-03T10:53:01.683Z,994.83
2016-08-03T10:54:01.705Z,994.85
2016-08-03T10:55:01.729Z,994.83
2016-08-03T10:56:01.747Z,994.87
2016-08-03T10:57:01.771Z,994.9
2016-08-03T10:58:01.789Z,994.88
2016-08-03T10:59:01.809Z,994.93
2016-08-03T11:00:01.845Z,994.91
2016-08-03T11:01:01.855Z,994.92
2016-08-03T11:02:01.876Z,994.9
2016-08-03T11:03:01.897Z,994.93
2016-08-03T11:04:01.923Z,994.92
2016-08-03T11:05:01.942Z,994.96
2016-08-03T11:06:01.962Z,994.92
2016-08-03T11:07:01.984Z,994.92
2016-08-03T11:08:02.007Z,994.87
2016-08-03T11:09:02.029Z,994.93
2016-08-03T11:10:02.059Z,994.96
2016-08-03T11:11:02.072Z,994.87
2016-08-03T11:12:02.092Z,994.84
2016-08-03T11:13:02.117Z,994.9
2016-08-03T11:14:02.135Z,994.9
2016-08-03T11:15:02.178Z,994.86
2016-08-03T11:16:02.180Z,994.88
2016-08-03T11:17:02.201Z,994.83
2016-08-03T11:18:02.225Z,994.84
2016-08-03T11:19:02.244Z,994.89
2016-08-03T11:20:02.270Z,994.88
2016-08-03T11:21:02.288Z,994.84
2016-08-03T11:22:02.313Z,994.88
2016-08-03T11:23:02.331Z,994.92
2016-08-03T11:24:02.357Z,994.9
2016-08-03T11:25:02.376Z,994.88
2016-08-03T11:26:02.396Z,994.91
2016-08-03T11:27:02.418Z,994.87
2016-08-03T11:28:02.442Z,994.93
2016-08-03T11:29:02.460Z,994.91
2016-08-03T11:30:02.480Z,994.94
2016-08-03T11:31:02.505Z,994.91
2016-08-03T11:32:02.526Z,994.92
2016-08-03T11:33:02.565Z,994.95
2016-08-03T11:34:02.570Z,994.93
2016-08-03T11:35:02.588Z,994.91
2016-08-03T11:36:02.609Z,994.95
2016-08-03T11:37:02.634Z,994.98
2016-08-03T11:38:02.658Z,994.94
2016-08-03T11:39:02.676Z,994.97
2016-08-03T11:40:02.696Z,994.93
2016-08-03T11:41:02.724Z,994.98
2016-08-03T11:42:02.742Z,994.93
2016-08-03T11:43:02.764Z,994.88
2016-08-03T11:44:02.786Z,994.9
2016-08-03T11:45:02.807Z,994.85
2016-08-03T11:46:02.825Z,994.84
2016-08-03T11:47:02.849Z,994.85
2016-08-03T11:48:02.874Z,994.82
2016-08-03T11:49:02.896Z,994.83
2016-08-03T11:50:02.916Z,994.81
2016-08-03T11:51:02.934Z,994.79
2016-08-03T11:52:02.960Z,994.73
2016-08-03T11:53:02.979Z,994.75
2016-08-03T11:54:03.012Z,994.79
2016-08-03T11:55:03.023Z,994.79
2016-08-03T11:56:03.044Z,994.8
2016-08-03T11:57:03.066Z,994.8
2016-08-03T11:58:03.088Z,994.81
2016-08-03T11:59:03.107Z,994.8
2016-08-03T12:00:03.129Z,994.86
2016-08-03T12:01:03.152Z,994.86
2016-08-03T12:02:03.172Z,994.83
2016-08-03T12:03:03.195Z,994.87
2016-08-03T12:04:03.217Z,994.84
2016-08-03T12:05:03.237Z,994.88
2016-08-03T12:06:03.261Z,994.93
2016-08-03T12:07:03.281Z,994.91
2016-08-03T12:08:03.302Z,994.99
2016-08-03T12:09:03.321Z,994.99
2016-08-03T12:10:03.345Z,994.98
2016-08-03T12:11:03.368Z,994.96
2016-08-03T12:12:03.392Z,995
2016-08-03T12:13:03.412Z,994.97
2016-08-03T12:14:03.433Z,994.98
2016-08-03T12:15:03.454Z,995
2016-08-03T12:16:03.470Z,994.99
2016-08-03T12:17:03.495Z,995
2016-08-03T12:18:03.518Z,995.04
2016-08-03T12:19:03.538Z,995.02
2016-08-03T12:20:03.559Z,995.02
2016-08-03T12:21:03.579Z,995.12
2016-08-03T12:22:03.603Z,995.07
2016-08-03T12:23:03.621Z,995.09
2016-08-03T12:24:03.647Z,995.11
2016-08-03T12:25:03.669Z,995.09
2016-08-03T12:26:03.692Z,995.07
2016-08-03T12:27:03.713Z,995.09
2016-08-03T12:28:03.730Z,995.16
2016-08-03T12:29:03.753Z,995.17
2016-08-03T12:30:03.772Z,995.18
2016-08-03T12:31:03.794Z,995.27
2016-08-03T12:32:03.819Z,995.27
2016-08-03T12:33:03.839Z,995.26
2016-08-03T12:34:03.856Z,995.28
2016-08-03T12:35:03.879Z,995.3
2016-08-03T12:36:03.901Z,995.26
2016-08-03T12:37:03.923Z,995.26
2016-08-03T12:38:03.945Z,995.3
2016-08-03T12:39:03.964Z,995.21
2016-08-03T12:40:03.987Z,995.17
2016-08-03T12:41:04.007Z,995.21
2016-08-03T12:42:04.030Z,995.19
2016-08-03T12:43:04.046Z,995.19
2016-08-03T12:44:04.074Z,995.18